Time;durP1;ratioP1;P1;durP2;ratioP2;P2;SDS_P1;SDS_P2;PMS_P1;PMS_P2;Temp;Humidity;BMP_temperature;BMP_pressure;BME280_temperature;BME280_humidity;BME280_pressure;Samples;Min_cycle;Max_cycle;Signal;HPM_P1;HPM_P2
2022/04/06 00:00:24;;;;;;;21.20;12.13;;;10.10;99.90;;;;;;2608166;54;20453;-72
2022/04/06 00:02:49;;;;;;;22.77;11.10;;;10.10;99.90;;;;;;2607760;46;20309;-71
2022/04/06 00:05:15;;;;;;;20.80;10.10;;;10.20;99.90;;;;;;2608662;54;20166;-72
2022/04/06 00:07:42;;;;;;;18.07;11.20;;;10.20;99.90;;;;;;2610266;54;20163;-72
2022/04/06 00:10:10;;;;;;;13.27;9.30;;;10.10;99.90;;;;;;2610133;54;20156;-72
2022/04/06 00:12:37;;;;;;;23.90;11.77;;;10.10;99.90;;;;;;2608363;54;20450;-73
2022/04/06 00:15:09;;;;;;;21.50;10.87;;;10.20;99.90;;;;;;2609663;54;21005;-73
2022/04/06 00:17:35;;;;;;;19.03;11.10;;;10.10;99.90;;;;;;2607567;39;20834;-72
2022/04/06 00:20:02;;;;;;;13.73;10.07;;;10.10;99.90;;;;;;2609295;54;20416;-73
2022/04/06 00:22:28;;;;;;;16.37;9.90;;;10.10;99.90;;;;;;2607823;54;20958;-73
2022/04/06 00:24:54;;;;;;;17.07;9.93;;;10.10;99.90;;;;;;2607570;54;20421;-72
2022/04/06 00:27:19;;;;;;;28.20;11.07;;;10.00;99.90;;;;;;2609165;54;20277;-72
2022/04/06 00:29:45;;;;;;;21.53;9.77;;;10.00;99.90;;;;;;2610190;54;20157;-73
2022/04/06 00:32:11;;;;;;;20.77;11.50;;;10.00;99.90;;;;;;2608647;47;20504;-72
2022/04/06 00:37:21;;;;;;;17.83;12.33;;;10.10;99.90;;;;;;2608069;54;20429;-73
2022/04/06 00:39:47;;;;;;;15.30;8.77;;;10.10;99.90;;;;;;2607966;54;20409;-72
2022/04/06 00:42:13;;;;;;;21.67;10.27;;;10.10;99.90;;;;;;2608185;47;20169;-72
2022/04/06 00:44:39;;;;;;;22.07;10.87;;;10.10;99.90;;;;;;2608725;54;20413;-72
2022/04/06 00:47:07;;;;;;;16.40;10.60;;;10.10;99.90;;;;;;2609439;47;20283;-72
2022/04/06 00:49:34;;;;;;;15.17;9.70;;;10.00;99.90;;;;;;2609811;46;20490;-73
2022/04/06 00:52:05;;;;;;;18.03;8.07;;;10.10;99.90;;;;;;2608687;51;20419;-72
2022/04/06 00:54:32;;;;;;;13.80;9.40;;;10.00;99.90;;;;;;2608902;54;20441;-73
2022/04/06 00:56:59;;;;;;;12.83;8.50;;;10.00;99.90;;;;;;2607932;54;20449;-72
2022/04/06 00:59:27;;;;;;;18.50;9.53;;;10.00;99.90;;;;;;2608401;54;20431;-73
2022/04/06 01:01:53;;;;;;;15.70;9.60;;;10.00;99.90;;;;;;2610374;54;20397;-73
2022/04/06 01:04:19;;;;;;;26.37;11.80;;;10.00;99.90;;;;;;2610089;39;20892;-73
2022/04/06 01:06:47;;;;;;;21.93;9.40;;;10.10;99.90;;;;;;2610639;54;20435;-73
2022/04/06 01:09:16;;;;;;;15.20;10.17;;;10.00;99.90;;;;;;2609119;54;20188;-73
2022/04/06 01:11:45;;;;;;;13.37;8.90;;;10.00;99.90;;;;;;2608411;54;20458;-73
2022/04/06 01:14:12;;;;;;;19.73;10.17;;;10.10;99.90;;;;;;2608837;39;20814;-73
2022/04/06 01:16:39;;;;;;;11.83;8.57;;;10.10;99.90;;;;;;2608656;54;20422;-72
2022/04/06 01:19:05;;;;;;;16.77;10.10;;;10.00;99.90;;;;;;2609106;54;20424;-73
2022/04/06 01:21:31;;;;;;;12.10;9.10;;;10.00;99.90;;;;;;2608267;54;20500;-72
2022/04/06 01:23:57;;;;;;;14.57;9.10;;;9.90;99.90;;;;;;2606112;39;20818;-72
2022/04/06 01:26:25;;;;;;;17.03;10.20;;;9.90;99.90;;;;;;2609689;47;20271;-73
2022/04/06 01:28:51;;;;;;;14.30;8.97;;;10.00;99.90;;;;;;2608021;54;20541;-73
2022/04/06 01:31:17;;;;;;;18.30;10.13;;;10.00;99.90;;;;;;2609122;54;20425;-73
2022/04/06 01:33:43;;;;;;;12.80;8.77;;;10.00;99.90;;;;;;2608167;39;20828;-73
2022/04/06 01:36:09;;;;;;;11.53;6.70;;;10.00;99.90;;;;;;2608180;54;20513;-73
2022/04/06 01:38:35;;;;;;;21.00;9.10;;;9.90;99.90;;;;;;2608315;54;20482;-74
2022/04/06 01:41:01;;;;;;;19.67;8.27;;;9.90;99.90;;;;;;2608853;54;20407;-73
2022/04/06 01:43:27;;;;;;;12.43;7.97;;;9.90;99.90;;;;;;2610863;47;20180;-73
2022/04/06 01:45:54;;;;;;;15.83;8.37;;;9.90;99.90;;;;;;2610054;54;20424;-73
2022/04/06 01:48:20;;;;;;;16.50;10.10;;;9.90;99.90;;;;;;2609121;54;20656;-72
2022/04/06 01:53:31;;;;;;;15.43;7.83;;;9.90;99.90;;;;;;2609569;54;20156;-73
2022/04/06 01:55:57;;;;;;;11.93;6.97;;;9.90;99.90;;;;;;2608621;54;20460;-72
2022/04/06 01:58:23;;;;;;;10.40;6.20;;;9.90;99.90;;;;;;2608434;54;20524;-74
2022/04/06 02:00:53;;;;;;;18.17;8.73;;;9.90;99.90;;;;;;2609711;54;20425;-73
2022/04/06 02:03:19;;;;;;;22.03;9.00;;;9.80;99.90;;;;;;2611284;54;20981;-73
2022/04/06 02:05:46;;;;;;;17.80;9.17;;;9.80;99.90;;;;;;2609709;39;20827;-72
2022/04/06 02:08:11;;;;;;;16.07;8.73;;;9.80;99.90;;;;;;2607733;47;20444;-74
2022/04/06 02:10:39;;;;;;;17.37;8.77;;;9.80;99.90;;;;;;2608149;47;20442;-73
2022/04/06 02:13:05;;;;;;;11.80;7.10;;;9.80;99.90;;;;;;2608518;54;20149;-72
2022/04/06 02:15:31;;;;;;;13.87;7.57;;;9.80;99.90;;;;;;2611193;54;20434;-72
2022/04/06 02:17:57;;;;;;;13.30;8.03;;;9.70;99.90;;;;;;2611968;54;20424;-72
2022/04/06 02:20:23;;;;;;;19.40;6.77;;;9.80;99.90;;;;;;2609492;54;20436;-72
2022/04/06 02:22:49;;;;;;;11.23;8.57;;;9.80;99.90;;;;;;2608785;39;21342;-73
2022/04/06 02:25:15;;;;;;;16.23;8.43;;;9.80;99.90;;;;;;2610176;39;20468;-72
2022/04/06 02:27:53;;;;;;;12.43;6.67;;;9.80;99.90;;;;;;2608830;46;20460;-73
2022/04/06 02:30:19;;;;;;;11.33;7.90;;;9.80;99.90;;;;;;2609196;54;20458;-73
2022/04/06 02:32:46;;;;;;;10.83;6.73;;;9.90;99.90;;;;;;2609923;54;20460;-73
2022/04/06 02:35:13;;;;;;;18.33;8.73;;;9.80;99.90;;;;;;2612776;54;20995;-73
2022/04/06 02:37:41;;;;;;;12.77;7.20;;;9.80;99.90;;;;;;2610527;46;21183;-72
2022/04/06 02:40:09;;;;;;;11.90;6.17;;;9.70;99.90;;;;;;2611190;39;21038;-73
2022/04/06 02:42:35;;;;;;;10.60;6.80;;;9.80;99.90;;;;;;2611159;46;20405;-72
2022/04/06 02:45:01;;;;;;;10.80;7.00;;;9.80;99.90;;;;;;2610466;54;21458;-73
2022/04/06 02:47:27;;;;;;;24.63;8.40;;;9.80;99.90;;;;;;2607664;54;20409;-73
2022/04/06 02:49:53;;;;;;;7.70;5.23;;;9.80;99.90;;;;;;2606922;47;20171;-71
2022/04/06 02:52:18;;;;;;;13.80;7.10;;;9.80;99.90;;;;;;2607042;54;20167;-73
2022/04/06 02:54:44;;;;;;;12.93;6.77;;;9.80;99.90;;;;;;2609688;39;20810;-73
2022/04/06 02:57:10;;;;;;;14.50;7.33;;;9.80;99.90;;;;;;2610344;54;20190;-73
2022/04/06 02:59:39;;;;;;;15.20;6.10;;;9.80;99.90;;;;;;2609976;54;20164;-74
2022/04/06 03:02:05;;;;;;;11.33;6.40;;;9.70;99.90;;;;;;2608717;47;20170;-73
2022/04/06 03:04:30;;;;;;;10.23;5.43;;;9.70;99.90;;;;;;2608307;54;20411;-72
2022/04/06 03:06:58;;;;;;;12.53;6.17;;;9.70;99.90;;;;;;2606970;54;20223;-72
2022/04/06 03:09:24;;;;;;;11.00;5.70;;;9.70;99.90;;;;;;2607155;51;21299;-72
2022/04/06 03:11:50;;;;;;;16.73;5.17;;;9.80;99.90;;;;;;2611118;54;20415;-73
2022/04/06 03:14:15;;;;;;;10.57;6.43;;;9.80;99.90;;;;;;2611107;47;20176;-73
2022/04/06 03:16:41;;;;;;;10.50;5.07;;;9.70;99.90;;;;;;2611992;39;20635;-73
2022/04/06 03:19:07;;;;;;;10.00;5.23;;;9.80;99.90;;;;;;2608412;54;20153;-71
2022/04/06 03:21:33;;;;;;;14.13;6.40;;;9.80;99.90;;;;;;2609495;54;20152;-72
2022/04/06 03:23:58;;;;;;;10.50;5.47;;;9.80;99.90;;;;;;2608315;47;20887;-73
2022/04/06 03:26:24;;;;;;;11.07;6.37;;;9.70;99.90;;;;;;2608076;47;20417;-72
2022/04/06 03:28:50;;;;;;;17.93;6.67;;;9.70;99.90;;;;;;2609074;54;20149;-73
2022/04/06 03:31:16;;;;;;;9.17;5.20;;;9.70;99.90;;;;;;2609831;54;20211;-72
2022/04/06 03:33:41;;;;;;;8.93;5.20;;;9.70;99.90;;;;;;2609078;54;20187;-72
2022/04/06 03:36:08;;;;;;;11.43;5.93;;;9.70;99.90;;;;;;2606978;54;21338;-72
2022/04/06 03:38:34;;;;;;;8.80;6.13;;;9.80;99.90;;;;;;2609285;39;20546;-73
2022/04/06 03:41:00;;;;;;;12.70;5.67;;;9.80;99.90;;;;;;2609426;54;20447;-73
2022/04/06 03:43:26;;;;;;;10.03;5.90;;;9.70;99.90;;;;;;2607720;54;21061;-74
2022/04/06 03:45:52;;;;;;;16.77;6.03;;;9.70;99.90;;;;;;2608137;47;20422;-73
2022/04/06 03:48:21;;;;;;;7.33;5.37;;;9.70;99.90;;;;;;2609103;54;20157;-74
2022/04/06 03:50:49;;;;;;;15.63;6.10;;;9.80;99.90;;;;;;2609095;54;21027;-73
2022/04/06 03:53:15;;;;;;;19.33;7.40;;;9.70;99.90;;;;;;2606626;54;20476;-73
2022/04/06 03:55:41;;;;;;;10.37;6.57;;;9.70;99.90;;;;;;2607308;54;20449;-74
2022/04/06 03:58:06;;;;;;;9.20;5.60;;;9.70;99.90;;;;;;2606988;54;20161;-73
2022/04/06 04:00:32;;;;;;;9.67;6.20;;;9.70;99.90;;;;;;2608025;54;20737;-73
2022/04/06 04:02:58;;;;;;;10.33;6.80;;;9.70;99.90;;;;;;2611644;47;20213;-73
2022/04/06 04:05:24;;;;;;;10.57;6.30;;;9.70;99.90;;;;;;2610220;54;20260;-74
2022/04/06 04:07:49;;;;;;;10.47;5.67;;;9.70;99.90;;;;;;2607258;54;20187;-73
2022/04/06 04:10:19;;;;;;;13.80;6.03;;;9.70;99.90;;;;;;2607289;47;20171;-73
2022/04/06 04:12:45;;;;;;;14.30;6.13;;;9.60;99.90;;;;;;2607995;46;20231;-73
2022/04/06 04:15:11;;;;;;;12.63;5.20;;;9.70;99.90;;;;;;2610047;54;20427;-72
2022/04/06 04:17:37;;;;;;;14.53;8.37;;;9.60;99.90;;;;;;2608381;54;20164;-73
2022/04/06 04:20:03;;;;;;;7.97;5.07;;;9.60;99.90;;;;;;2607307;54;20157;-73
2022/04/06 04:22:30;;;;;;;5.87;4.73;;;9.60;99.90;;;;;;2611706;39;20864;-73
2022/04/06 04:24:57;;;;;;;10.97;6.37;;;9.60;99.90;;;;;;2608859;39;21016;-73
2022/04/06 04:27:22;;;;;;;12.13;6.10;;;9.60;99.90;;;;;;2607824;54;20541;-74
2022/04/06 04:29:49;;;;;;;13.20;7.07;;;9.60;99.90;;;;;;2608385;54;20412;-73
2022/04/06 04:32:16;;;;;;;11.67;6.40;;;9.60;99.90;;;;;;2607758;54;20163;-73
2022/04/06 04:34:43;;;;;;;8.30;6.13;;;9.60;99.90;;;;;;2607464;47;20424;-72
2022/04/06 04:37:08;;;;;;;12.83;6.20;;;9.50;99.90;;;;;;2608777;39;20889;-73
2022/04/06 04:39:34;;;;;;;13.10;5.20;;;9.60;99.90;;;;;;2609135;39;20932;-74
2022/04/06 04:42:00;;;;;;;8.13;5.27;;;9.60;99.90;;;;;;2609026;54;20483;-73
2022/04/06 04:44:26;;;;;;;8.40;6.07;;;9.50;99.90;;;;;;2606792;47;20167;-72
2022/04/06 04:46:52;;;;;;;12.53;6.37;;;9.50;99.90;;;;;;2608974;54;20954;-73
2022/04/06 04:49:18;;;;;;;10.97;7.03;;;9.40;99.90;;;;;;2607767;54;20181;-73
2022/04/06 04:51:43;;;;;;;13.03;7.13;;;9.40;99.90;;;;;;2606831;54;20164;-74
2022/04/06 04:54:10;;;;;;;7.73;6.57;;;9.40;99.90;;;;;;2609877;54;20157;-74
2022/04/06 04:56:36;;;;;;;12.53;5.83;;;9.40;99.90;;;;;;2610162;46;20213;-73
2022/04/06 04:59:01;;;;;;;7.27;5.57;;;9.30;99.90;;;;;;2607424;54;20427;-73
2022/04/06 05:01:27;;;;;;;11.93;5.50;;;9.30;99.90;;;;;;2607210;39;20895;-73
2022/04/06 05:03:53;;;;;;;10.43;5.90;;;9.30;99.90;;;;;;2608207;54;20155;-73
2022/04/06 05:06:19;;;;;;;11.43;7.07;;;9.20;99.90;;;;;;2608920;54;20961;-73
2022/04/06 05:08:45;;;;;;;12.10;6.20;;;9.30;99.90;;;;;;2607305;47;20426;-73
2022/04/06 05:11:10;;;;;;;16.17;5.97;;;9.30;99.90;;;;;;2607696;54;20156;-76
2022/04/06 05:13:37;;;;;;;9.77;6.40;;;9.30;99.90;;;;;;2610468;47;20182;-76
2022/04/06 05:16:04;;;;;;;11.43;5.53;;;9.40;99.90;;;;;;2609999;54;20209;-73
2022/04/06 05:18:29;;;;;;;7.50;5.70;;;9.30;99.90;;;;;;2608033;54;21680;-73
2022/04/06 05:20:56;;;;;;;10.40;5.40;;;9.30;99.90;;;;;;2610027;54;20590;-74
2022/04/06 05:23:22;;;;;;;9.50;6.30;;;9.30;99.90;;;;;;2607961;39;20698;-72
2022/04/06 05:25:48;;;;;;;6.77;4.90;;;9.40;99.90;;;;;;2607819;54;20424;-74
2022/04/06 05:28:15;;;;;;;8.70;5.50;;;9.40;99.90;;;;;;2609036;54;20156;-76
2022/04/06 05:30:42;;;;;;;7.10;5.70;;;9.40;99.90;;;;;;2607941;54;20251;-75
2022/04/06 05:33:08;;;;;;;9.50;5.77;;;9.50;99.90;;;;;;2608255;54;22075;-73
2022/04/06 05:35:34;;;;;;;10.33;4.13;;;9.50;99.90;;;;;;2609056;54;20406;-73
2022/04/06 05:38:00;;;;;;;10.63;4.63;;;9.50;99.90;;;;;;2605779;54;20414;-74
2022/04/06 05:40:26;;;;;;;7.30;4.60;;;9.50;99.90;;;;;;2605603;54;20972;-73
2022/04/06 05:42:52;;;;;;;7.33;5.07;;;9.60;99.90;;;;;;2609767;54;20528;-73
2022/04/06 05:45:18;;;;;;;11.30;4.87;;;9.60;99.90;;;;;;2607275;54;20420;-73
2022/04/06 05:47:45;;;;;;;8.63;5.80;;;9.60;99.90;;;;;;2611154;54;20415;-75
2022/04/06 05:50:13;;;;;;;6.57;3.90;;;9.70;99.90;;;;;;2606862;54;20412;-76
2022/04/06 05:52:39;;;;;;;13.40;5.03;;;9.70;99.90;;;;;;2606667;39;20794;-73
2022/04/06 05:55:05;;;;;;;6.10;4.67;;;9.70;99.90;;;;;;2606062;54;20459;-73
2022/04/06 05:57:31;;;;;;;5.67;4.10;;;9.70;99.90;;;;;;2607964;54;20425;-75
2022/04/06 05:59:57;;;;;;;7.63;4.33;;;9.60;99.90;;;;;;2608130;47;20434;-74
2022/04/06 06:02:26;;;;;;;6.47;4.47;;;9.70;99.90;;;;;;2606705;47;20419;-73
2022/04/06 06:04:52;;;;;;;6.33;4.40;;;9.70;99.90;;;;;;2607125;54;20149;-73
2022/04/06 06:07:21;;;;;;;8.63;4.43;;;9.70;99.90;;;;;;2606950;47;20422;-73
2022/04/06 06:09:47;;;;;;;10.20;5.50;;;9.70;99.90;;;;;;2610603;54;20426;-73
2022/04/06 06:12:13;;;;;;;11.53;5.50;;;9.80;99.90;;;;;;2607640;54;20973;-74
2022/04/06 06:14:39;;;;;;;7.00;4.33;;;9.70;99.90;;;;;;2608223;54;20497;-74
2022/04/06 06:17:05;;;;;;;10.13;6.37;;;9.70;99.90;;;;;;2608517;39;20839;-73
2022/04/06 06:19:31;;;;;;;10.80;4.60;;;9.70;99.90;;;;;;2609892;54;21012;-74
2022/04/06 06:21:57;;;;;;;9.77;5.10;;;9.70;99.90;;;;;;2609358;54;20268;-73
2022/04/06 06:24:24;;;;;;;13.60;6.30;;;9.80;99.90;;;;;;2609199;54;20690;-73
2022/04/06 06:26:50;;;;;;;9.90;6.03;;;9.90;99.90;;;;;;2606527;54;20419;-73
2022/04/06 06:29:16;;;;;;;13.40;6.23;;;9.80;99.90;;;;;;2606095;54;20430;-74
2022/04/06 06:31:41;;;;;;;11.67;5.50;;;9.80;99.90;;;;;;2611897;39;20767;-74
2022/04/06 06:34:08;;;;;;;13.03;6.37;;;9.80;99.90;;;;;;2609020;54;20534;-74
2022/04/06 06:36:34;;;;;;;7.33;4.83;;;9.90;99.90;;;;;;2604622;54;20759;-73
2022/04/06 06:39:00;;;;;;;9.33;6.00;;;9.90;99.90;;;;;;2606863;48;21224;-73
2022/04/06 06:41:26;;;;;;;6.40;5.27;;;9.90;99.90;;;;;;2605554;54;20413;-75
2022/04/06 06:43:53;;;;;;;6.00;5.40;;;10.00;99.90;;;;;;2607675;54;20417;-74
2022/04/06 06:46:22;;;;;;;6.93;5.43;;;10.00;99.90;;;;;;2609894;54;20175;-73
2022/04/06 06:48:49;;;;;;;11.90;5.20;;;10.00;99.90;;;;;;2610257;54;20529;-74
2022/04/06 06:51:17;;;;;;;6.27;4.30;;;10.00;99.90;;;;;;2610459;54;21484;-75
2022/04/06 06:53:43;;;;;;;6.03;4.70;;;9.90;99.90;;;;;;2607306;54;20497;-73
2022/04/06 06:56:09;;;;;;;7.43;5.30;;;9.90;99.90;;;;;;2605224;54;21145;-75
2022/04/06 06:58:35;;;;;;;8.00;3.80;;;10.00;99.90;;;;;;2604609;54;20402;-73
2022/04/06 07:01:01;;;;;;;9.07;6.57;;;10.00;99.90;;;;;;2607976;54;20428;-72
2022/04/06 07:03:27;;;;;;;10.93;5.47;;;10.00;99.90;;;;;;2606891;54;21432;-73
2022/04/06 07:05:53;;;;;;;4.33;3.83;;;9.90;99.90;;;;;;2608887;54;20412;-74
2022/04/06 07:08:19;;;;;;;20.47;5.57;;;9.90;99.90;;;;;;2611135;54;20434;-74
2022/04/06 07:10:46;;;;;;;8.77;5.30;;;9.90;99.90;;;;;;2606583;39;20818;-73
2022/04/06 07:13:14;;;;;;;6.97;4.83;;;9.90;99.90;;;;;;2607730;54;21035;-73
2022/04/06 07:15:40;;;;;;;10.53;4.53;;;9.90;99.90;;;;;;2608237;54;20417;-74
2022/04/06 07:18:07;;;;;;;14.33;5.10;;;9.90;99.90;;;;;;2606770;54;20459;-73
2022/04/06 07:20:35;;;;;;;7.83;4.57;;;9.90;99.90;;;;;;2609876;39;20865;-73
2022/04/06 07:23:02;;;;;;;6.47;3.90;;;9.90;99.90;;;;;;2607525;47;20460;-73
2022/04/06 07:25:28;;;;;;;8.93;4.80;;;9.80;99.90;;;;;;2610768;54;20389;-73
2022/04/06 07:27:54;;;;;;;7.63;4.93;;;9.80;99.90;;;;;;2609634;47;21170;-73
2022/04/06 07:30:20;;;;;;;5.73;5.10;;;9.70;99.90;;;;;;2609081;54;20157;-73
2022/04/06 07:32:46;;;;;;;8.07;4.80;;;9.70;99.90;;;;;;2607894;54;20422;-74
2022/04/06 07:35:12;;;;;;;3.23;2.93;;;9.60;99.90;;;;;;2607889;54;20164;-73
2022/04/06 07:37:43;;;;;;;5.97;4.20;;;9.60;99.90;;;;;;2608079;54;20409;-72
2022/04/06 07:40:11;;;;;;;12.37;6.80;;;9.60;99.90;;;;;;2607189;46;20432;-73
2022/04/06 07:42:38;;;;;;;12.17;6.53;;;9.60;99.90;;;;;;2609765;54;20408;-74
2022/04/06 07:45:04;;;;;;;9.70;5.33;;;9.60;99.90;;;;;;2610622;54;20417;-74
2022/04/06 07:47:34;;;;;;;6.57;5.13;;;9.70;99.90;;;;;;2610421;54;21577;-74
2022/04/06 07:50:01;;;;;;;16.93;7.70;;;9.80;99.90;;;;;;2610293;54;20412;-74
2022/04/06 07:52:30;;;;;;;12.40;4.50;;;9.90;99.90;;;;;;2610358;54;20504;-72
2022/04/06 07:54:56;;;;;;;9.50;5.80;;;9.90;99.90;;;;;;2609132;54;20447;-72
2022/04/06 07:57:27;;;;;;;14.93;5.03;;;9.90;99.90;;;;;;2609885;54;20436;-73
2022/04/06 07:59:53;;;;;;;6.83;4.00;;;10.00;99.90;;;;;;2608942;54;20395;-73
2022/04/06 08:02:19;;;;;;;7.13;4.50;;;10.00;99.90;;;;;;2612474;46;20516;-73
2022/04/06 08:04:45;;;;;;;10.70;5.20;;;10.10;99.90;;;;;;2608563;54;21086;-74
2022/04/06 08:07:11;;;;;;;8.70;5.27;;;10.10;99.90;;;;;;2607961;47;20438;-74
2022/04/06 08:09:37;;;;;;;13.70;5.27;;;10.10;99.90;;;;;;2607552;54;20149;-74
2022/04/06 08:12:03;;;;;;;6.20;3.53;;;10.00;99.90;;;;;;2608111;54;20162;-74
2022/04/06 08:14:29;;;;;;;6.30;4.63;;;10.00;99.90;;;;;;2610396;46;20643;-74
2022/04/06 08:16:57;;;;;;;5.73;5.17;;;10.10;99.90;;;;;;2608997;54;20423;-74
2022/04/06 08:19:24;;;;;;;12.70;5.10;;;10.20;99.90;;;;;;2609833;54;21085;-75
2022/04/06 08:21:51;;;;;;;16.00;4.77;;;10.10;99.90;;;;;;2610932;54;20474;-74
2022/04/06 08:24:16;;;;;;;14.13;5.57;;;10.10;99.90;;;;;;2607609;54;20441;-72
2022/04/06 08:26:42;;;;;;;8.63;5.07;;;10.10;99.90;;;;;;2607894;54;20420;-73
2022/04/06 08:29:08;;;;;;;7.67;4.53;;;10.10;99.90;;;;;;2609174;54;20154;-75
2022/04/06 08:31:34;;;;;;;10.03;5.40;;;10.10;99.90;;;;;;2608987;54;21397;-73
2022/04/06 08:34:00;;;;;;;4.90;4.40;;;10.00;99.90;;;;;;2608303;54;20457;-73
2022/04/06 08:36:26;;;;;;;4.00;3.70;;;10.00;99.90;;;;;;2608610;54;20421;-73
2022/04/06 08:38:52;;;;;;;12.63;4.50;;;9.90;99.90;;;;;;2611546;54;20477;-73
2022/04/06 08:41:20;;;;;;;5.07;4.23;;;9.90;99.90;;;;;;2607539;54;20709;-74
2022/04/06 08:43:46;;;;;;;5.33;4.83;;;9.90;99.90;;;;;;2608838;47;20423;-74
2022/04/06 08:46:12;;;;;;;8.00;3.97;;;9.80;99.90;;;;;;2608212;54;20880;-73
2022/04/06 08:48:39;;;;;;;6.83;5.63;;;9.80;99.90;;;;;;2607936;31;20878;-73
2022/04/06 08:51:09;;;;;;;5.00;4.33;;;9.90;99.90;;;;;;2607590;54;20424;-72
2022/04/06 08:53:39;;;;;;;15.37;5.43;;;9.90;99.90;;;;;;2608523;54;21084;-72
2022/04/06 08:56:07;;;;;;;13.67;6.20;;;10.00;99.90;;;;;;2608914;54;20439;-73
2022/04/06 08:58:33;;;;;;;5.80;3.90;;;10.10;99.90;;;;;;2611132;54;20423;-73
2022/04/06 09:00:59;;;;;;;6.47;4.70;;;10.20;99.90;;;;;;2610174;46;20452;-74
2022/04/06 09:03:25;;;;;;;5.13;4.07;;;10.20;99.90;;;;;;2606562;54;20416;-74
2022/04/06 09:06:07;;;;;;;8.37;4.53;;;10.30;99.90;;;;;;2608091;54;20471;-73
2022/04/06 09:08:46;;;;;;;4.83;3.90;;;10.60;99.90;;;;;;2607529;54;20981;-73
2022/04/06 09:11:20;;;;;;;10.10;4.73;;;10.70;99.90;;;;;;2606343;54;20419;-74
2022/04/06 09:13:48;;;;;;;4.30;3.47;;;10.80;99.90;;;;;;2609751;47;20438;-73
2022/04/06 09:16:18;;;;;;;4.63;4.00;;;10.90;99.90;;;;;;2608552;54;21076;-74
2022/04/06 09:18:46;;;;;;;8.00;5.60;;;10.90;99.90;;;;;;2608718;47;20487;-74
2022/04/06 09:21:15;;;;;;;7.37;4.10;;;10.90;99.90;;;;;;2608182;54;21013;-73
2022/04/06 09:23:43;;;;;;;8.40;4.97;;;11.10;99.90;;;;;;2606811;54;21110;-72
2022/04/06 09:26:13;;;;;;;4.53;3.60;;;11.10;99.90;;;;;;2608904;54;20407;-74
2022/04/06 09:28:40;;;;;;;3.90;3.00;;;11.20;99.90;;;;;;2607346;39;21553;-72
2022/04/06 09:31:06;;;;;;;6.73;3.60;;;11.10;99.90;;;;;;2609238;54;20422;-74
2022/04/06 09:33:32;;;;;;;3.53;3.23;;;11.00;99.90;;;;;;2612109;54;20405;-73
2022/04/06 09:35:58;;;;;;;6.60;3.90;;;11.00;99.90;;;;;;2608552;54;20440;-74
2022/04/06 09:38:29;;;;;;;5.33;3.30;;;10.90;99.90;;;;;;2609705;54;22539;-72
2022/04/06 09:41:02;;;;;;;5.00;4.33;;;11.10;99.90;;;;;;2609354;54;20407;-73
2022/04/06 09:43:31;;;;;;;6.33;3.70;;;11.00;99.90;;;;;;2609120;54;20418;-74
2022/04/06 09:49:24;;;;;;;5.37;2.47;;;10.90;99.90;;;;;;2608131;54;21053;-72
2022/04/06 09:51:51;;;;;;;4.93;3.27;;;10.80;99.90;;;;;;2611517;39;21233;-75
2022/04/06 09:54:19;;;;;;;5.63;3.37;;;10.80;99.90;;;;;;2611022;54;20446;-73
2022/04/06 09:56:45;;;;;;;4.20;3.00;;;10.80;99.90;;;;;;2610008;54;20439;-73
2022/04/06 09:59:14;;;;;;;5.20;4.63;;;10.80;99.90;;;;;;2609423;54;20391;-74
2022/04/06 10:01:44;;;;;;;5.33;3.60;;;10.80;99.90;;;;;;2607837;46;20547;-74
2022/04/06 10:04:12;;;;;;;4.27;3.17;;;10.70;99.90;;;;;;2609627;54;20519;-74
2022/04/06 10:06:40;;;;;;;2.70;2.50;;;10.70;99.90;;;;;;2609013;54;20421;-74
2022/04/06 10:09:11;;;;;;;4.70;3.10;;;10.70;99.90;;;;;;2610303;46;21111;-74
2022/04/06 10:11:38;;;;;;;7.13;3.70;;;10.80;99.90;;;;;;2608621;54;20470;-73
2022/04/06 10:14:06;;;;;;;4.17;2.67;;;10.70;99.90;;;;;;2609978;39;20794;-73
2022/04/06 10:16:34;;;;;;;4.60;3.00;;;10.70;99.90;;;;;;2609240;54;20430;-74
2022/04/06 10:19:02;;;;;;;2.77;2.50;;;10.70;99.90;;;;;;2611099;39;20832;-74
2022/04/06 10:21:42;;;;;;;7.70;2.90;;;10.70;99.90;;;;;;2607667;39;20842;-73
2022/04/06 10:24:30;;;;;;;5.40;3.07;;;10.80;99.90;;;;;;2609823;47;20980;-74
2022/04/06 10:27:17;;;;;;;6.20;2.70;;;10.90;99.90;;;;;;2612615;54;20470;-73
2022/04/06 10:30:17;;;;;;;4.80;2.67;;;10.90;99.90;;;;;;2609234;54;20418;-73
2022/04/06 10:32:45;;;;;;;6.10;2.90;;;11.00;99.90;;;;;;2607570;54;20405;-73
2022/04/06 10:35:22;;;;;;;4.03;2.70;;;11.30;99.90;;;;;;2609182;54;20478;-73
2022/04/06 10:38:17;;;;;;;4.80;3.03;;;11.40;99.90;;;;;;2608318;54;20413;-73
2022/04/06 10:40:43;;;;;;;6.23;3.20;;;11.50;99.90;;;;;;2607940;54;20444;-73
2022/04/06 10:43:38;;;;;;;6.90;4.23;;;11.60;99.90;;;;;;2609780;54;20410;-73
2022/04/06 10:46:15;;;;;;;3.30;2.40;;;11.50;99.90;;;;;;2610472;39;20799;-75
2022/04/06 10:49:13;;;;;;;3.80;3.07;;;11.40;99.90;;;;;;2612087;39;20921;-74
2022/04/06 10:51:44;;;;;;;5.33;3.90;;;11.40;99.90;;;;;;2613013;54;20545;-73
2022/04/06 10:54:14;;;;;;;8.70;3.67;;;11.30;99.90;;;;;;2612069;39;21091;-74
2022/04/06 10:56:49;;;;;;;2.77;2.50;;;11.20;99.90;;;;;;2612342;54;20459;-73
2022/04/06 10:59:21;;;;;;;3.33;2.80;;;11.10;99.90;;;;;;2611363;54;20502;-73
2022/04/06 11:01:48;;;;;;;5.90;3.40;;;11.10;99.90;;;;;;2628639;36;20514;-75
2022/04/06 11:04:22;;;;;;;5.17;3.93;;;11.20;99.90;;;;;;2610472;46;20490;-74
2022/04/06 11:06:56;;;;;;;3.43;2.90;;;11.20;99.90;;;;;;2608060;47;20509;-75
2022/04/06 11:12:23;;;;;;;7.70;3.37;;;11.10;99.90;;;;;;2607033;54;20398;-73
2022/04/06 11:14:50;;;;;;;10.20;3.40;;;11.10;99.90;;;;;;2607289;54;20983;-74
2022/04/06 11:17:34;;;;;;;5.70;3.97;;;11.20;99.90;;;;;;2607494;54;20999;-74
2022/04/06 11:20:12;;;;;;;4.03;3.40;;;11.30;99.90;;;;;;2611411;54;20435;-74
2022/04/06 11:22:43;;;;;;;3.43;2.80;;;11.20;99.90;;;;;;2610343;54;20453;-73
2022/04/06 11:25:14;;;;;;;4.30;3.90;;;11.20;99.90;;;;;;2608031;54;21082;-73
2022/04/06 11:27:43;;;;;;;7.83;4.30;;;11.30;99.90;;;;;;2608156;54;20414;-73
2022/04/06 11:30:12;;;;;;;3.70;3.40;;;11.30;99.90;;;;;;2608954;54;20418;-74
2022/04/06 11:32:39;;;;;;;3.90;3.60;;;11.00;99.90;;;;;;2609441;54;20945;-73
2022/04/06 11:35:10;;;;;;;2.70;2.50;;;11.00;99.90;;;;;;2607021;54;20979;-73
2022/04/06 11:37:48;;;;;;;5.60;3.50;;;11.00;99.90;;;;;;2609998;54;20431;-74
2022/04/06 11:40:16;;;;;;;7.17;3.90;;;11.20;99.90;;;;;;2610810;54;20394;-74
2022/04/06 11:42:46;;;;;;;6.80;3.30;;;11.10;99.90;;;;;;2609732;54;20487;-74
2022/04/06 11:45:11;;;;;;;6.80;4.43;;;11.10;99.90;;;;;;2609633;47;20413;-76
2022/04/06 11:47:38;;;;;;;3.80;3.20;;;11.10;99.90;;;;;;2609400;54;20591;-71
2022/04/06 11:50:12;;;;;;;5.30;2.80;;;11.00;99.90;;;;;;2609514;54;20186;-73
2022/04/06 11:52:41;;;;;;;10.53;3.90;;;10.90;99.90;;;;;;2609193;47;20421;-75
2022/04/06 11:55:07;;;;;;;4.90;3.53;;;10.70;99.90;;;;;;2609185;54;20998;-74
2022/04/06 11:57:34;;;;;;;3.80;3.50;;;10.70;99.90;;;;;;2612243;47;20466;-73
2022/04/06 12:00:00;;;;;;;7.43;3.83;;;10.60;99.90;;;;;;2609392;54;20472;-74
2022/04/06 12:02:26;;;;;;;3.43;3.17;;;10.40;99.90;;;;;;2608982;54;20461;-74
2022/04/06 12:05:02;;;;;;;5.57;3.70;;;10.40;99.90;;;;;;2609961;39;20453;-73
2022/04/06 12:07:28;;;;;;;5.00;3.23;;;10.40;99.90;;;;;;2609329;54;20167;-74
2022/04/06 12:09:54;;;;;;;4.30;4.00;;;10.40;99.90;;;;;;2609933;54;20537;-73
2022/04/06 12:12:22;;;;;;;6.43;4.03;;;10.50;99.90;;;;;;2606508;54;20517;-74
2022/04/06 12:14:48;;;;;;;5.97;4.93;;;10.50;99.90;;;;;;2609385;39;20888;-74
2022/04/06 12:17:14;;;;;;;5.40;3.57;;;10.60;99.90;;;;;;2609550;54;20430;-73
2022/04/06 12:19:40;;;;;;;4.90;4.40;;;10.60;99.90;;;;;;2608023;47;20419;-74
2022/04/06 12:22:11;;;;;;;5.63;3.40;;;10.80;99.90;;;;;;2608518;54;20495;-74
2022/04/06 12:24:42;;;;;;;4.87;4.20;;;10.90;99.90;;;;;;2609934;54;20970;-74
2022/04/06 12:27:08;;;;;;;4.63;4.23;;;10.80;99.90;;;;;;2608305;54;20427;-74
2022/04/06 12:29:35;;;;;;;4.20;3.53;;;10.80;99.90;;;;;;2608864;47;20414;-74
2022/04/06 12:32:03;;;;;;;8.73;3.80;;;10.70;99.90;;;;;;2612045;39;20994;-73
2022/04/06 12:34:33;;;;;;;3.57;3.27;;;10.70;99.90;;;;;;2611273;54;20404;-73
2022/04/06 12:37:29;;;;;;;5.13;2.93;;;10.90;99.90;;;;;;2608546;54;20408;-74
2022/04/06 12:39:54;;;;;;;3.80;3.33;;;10.90;99.90;;;;;;2607837;47;20423;-73
2022/04/06 12:42:22;;;;;;;4.90;4.50;;;11.00;99.90;;;;;;2607013;52;20431;-74
2022/04/06 12:44:58;;;;;;;7.67;3.90;;;11.00;99.90;;;;;;2607948;54;20417;-73
2022/04/06 12:47:24;;;;;;;5.03;3.63;;;11.00;99.90;;;;;;2607012;54;20420;-74
2022/04/06 12:49:50;;;;;;;4.70;3.93;;;11.00;99.90;;;;;;2611317;54;20390;-74
2022/04/06 12:52:19;;;;;;;5.00;4.50;;;10.80;99.90;;;;;;2608831;47;20424;-73
2022/04/06 12:54:47;;;;;;;4.57;4.17;;;10.80;99.90;;;;;;2608262;54;20423;-73
2022/04/06 12:57:13;;;;;;;4.63;3.27;;;10.80;99.90;;;;;;2608702;54;20501;-73
2022/04/06 13:00:02;;;;;;;4.33;3.90;;;10.80;99.90;;;;;;2610847;54;20426;-73